Hlavní strana
METAR-TAF:

METAR-TAF

Letiště :

Pointe-Noire, Kongo

zeměpisná šířka: 04-49S, zeměpisná délka: 011-54E, výška: 17 m

Aktuální stav počasí

Zpráva byla vytvořena před 22 minutami, v 00:00 UTC
Východní vítr 2 kt
Teplota 24°C
Vlhkost vzduchu 100%
Tlak 1010 hPa
Viditelnost: 2200 m
Polojasno ve výšce 1000 ft
Oblačno až skoro zataženo ve výšce 2300 ft

METAR: FCPP 080000Z 08002KT 9999 2200S SCT010 BKN023 24/24 Q1010 NOSIG

Čas: 01:22 (00:22 UTC)

Předpověď počasí

Zpráva byla vytvořena před 1 hodinou a 22 minutami, v 23:00 UTC
Předpověď platná od 08 v 00 UTC do 08 v 24 UTC
Jižní vítr 4 kt
Viditelnost: 9000 m
Polojasno ve výšce 1000 ft
Změna
od 08 v 11 UTC do 08 v 13 UTC
Polojasno ve výšce 1500 ft
Skoro jasno ve výšce 3000 ft, Cumulonimbus.
Změna
od 08 v 14 UTC do 08 v 16 UTC
bouřka
Změna
od 08 v 19 UTC do 08 v 21 UTC
Skoro jasno ve výšce 1000 ft

TAF: FCPP 072300Z 0800/0824 18004KT 9000 SCT010 BECMG 0811/0813 SCT015 FEW030CB BECMG 0814/0816 TS BECMG 0819/0821 NSW FEW010

Stav a předpovědi počasí z více než 4 000 letišť (zprávy METAR a TAF).

Červené a žluté tečky na mapě představují dostupné meteorologické stanice.

Když kurzor umístíte na tečku, zobrazí se název stanice.

Pak kliknutím zobrazíte stav a předpověď počasí.

Chcete-li změnit mapu, kliknutím na zelené tlačítko se znaménkem +mapu přiblížíte, kliknutím na zelené tlačítko se znaménkem – mapu oddálíte a kliknutím na zelené šipky přejdete na sousední mapy.


METAR-TAF: